Ojai, CA (93023)

9:37 AM PDT on September 30, 2016 (GMT -0700)
S. Carillo Rd Ojai CA | | Change Station

Elev 758 ft 34.44 °N, 119.27 °W | Updated 34 seconds ago

Clear
Clear
81.7 °F
Feels Like 80 °F
N
0.0
Wind Variable Wind from East
Gusts 0.0 mph

Today
High -- | Low -- °F
--% Chance of Precip.
Yesterday
High -- | Low -- °F
Precip. -- in
Pressure 30.04 in
Visibility 8.0 miles
Clouds Clear
Heat Index 80 °F
Dew Point 49 °F
Humidity 32%
Rainfall 0.00 in
Snow Depth Not available.
6:51 AM 6:41 PM
Waning Crescent, 0% visible
METAR KOXR 301551Z 30006KT 8SM CLR 21/17 A3004 RMK AO2 SLP171 T02060172
Pressure 30.04 in
Visibility 8.0 miles
Clouds Clear
Heat Index 80 °F
Dew Point 49 °F
Humidity 32%
Rainfall 0.00 in
Snow Depth Not available.
6:51 AM 6:41 PM
Waning Crescent, 0% visible
METAR KOXR 301551Z 30006KT 8SM CLR 21/17 A3004 RMK AO2 SLP171 T02060172

10-Day Weather Forecast

Almanac

Astronomy

Sep. 30, 2016 Rise Set
Actual Time
Civil Twilight
Nautical Twilight
Astronomical Twilight
Moon
Length of Visible Light
Length of Day
Tomorrow will be .
, % of the Moon is Illuminated

Today's Extremes

State Highs State Lows

Community

WunderPhotos

Upload Photos

1,942,746 photos uploaded!

WunderBlog® & News

Nearby

Air Quality

  Air Quality AQ Index Pollutant
Not available.

Snow Depth

Station Depth Elevation

Earthquake Activity

City Distance Mag. Time & Date
Minimum magnitude displayed is 2.5.

Coastal Water Temperatures

Place Temperature

Stations

Nearby Weather Stations

Station Location Temp. Windchill Dew Point Humidity Wind Precip. Elev Updated Type
                   

Watches & Warnings

There are currently no watches in effect.